Home > Products > Valid Products > TAF

000
FTUS44 KMAF 252327
TAFMAF
TAF
KMAF 252327Z 2600/2624 VRB05KT P6SM FEW100 FEW250
     FM260100 17017G24KT P6SM SCT100 BKN250
     FM261000 20010KT P6SM SCT100 BKN150
     FM261500 26017G26KT P6SM BKN120 BKN250=



000
FTUS44 KMAF 251720
TAFMAF
TAF
KMAF 251720Z 2518/2618 25012G19KT P6SM SKC
     FM252100 23016G24KT P6SM FEW250
     FM260000 20015G22KT P6SM FEW250=



000
FTUS44 KMAF 250847 AAA
TAFMAF
TAF AMD
KMAF 250847Z 2509/2606 19011KT P6SM BKN200
      TEMPO 2509/2513 5SM BR BKN012
     FM251400 23012KT P6SM SCT250
     FM252100 26016G25KT P6SM SCT250=



000
FTUS44 KMAF 250520
TAFMAF
TAF
KMAF 250520Z 2506/2606 19016G24KT P6SM BKN200
     FM251100 19006KT P6SM BKN020
     FM251400 23012KT P6SM SCT250
     FM252100 26016G25KT P6SM SCT250=



000
FTUS44 KMAF 250102 AAB
TAFMAF
TAF AMD
KMAF 250102Z 2501/2524 17010KT P6SM SCT250
      TEMPO 2501/2504 18015G25KT
     FM251100 VRB06KT 5SM BR BKN020
     FM251300 26012KT P6SM FEW250=



000
FTUS44 KMAF 242321
TAFMAF
TAF
KMAF 242321Z 2500/2524 23014KT P6SM BKN250
     FM250100 17010KT P6SM SCT250
      TEMPO 2511/2514 5SM BR BKN020
     FM251500 26012KT P6SM FEW250=



000
FTUS44 KMAF 242235 AAB
TAFMAF
TAF AMD
KMAF 242235Z 2423/2518 23014G20KT P6SM BKN200
     FM250100 17010KT P6SM SCT200
      TEMPO 2511/2515 5SM BR BKN020=



000
FTUS44 KMAF 241934 CCB
TAFMAF
TAF COR
KMAF 241934Z 2419/2518 25011G20KT P6SM SCT250
     FM250100 17010KT P6SM SCT250
      TEMPO 2511/2515 5SM BR BKN020=



000
FTUS44 KMAF 241928 AAB
TAFMAF
TAF AMD
KMAF 241928Z 2419/2518 23012G20KT P6SM SCT250
     FM250100 17010KT P6SM SCT250
      TEMPO 2511/2515 5SM BR BKN020=



000
FTUS44 KMAF 241726
TAFMAF
TAF
KMAF 241726Z 2418/2518 26012G20KT P6SM SCT250
     FM250100 17010KT P6SM SCT250
      TEMPO 2511/2515 5SM BR BKN020=



000
FTUS44 KMAF 241215 CCA
TAFMAF
TAF COR
KMAF 241215Z 2412/2512 17012KT P6SM FEW120
      TEMPO 2412/2413 5SM HZ BKN020
     FM241500 22015G20KT P6SM SCT250
     FM250100 17010KT P6SM SCT250=



000
FTUS44 KMAF 241121
TAFMAF
TAF
KMAF 241121Z 2412/2512 18013KT P6SM BKN020
     FM241500 22015G20KT P6SM SCT250
     FM250100 17010KT P6SM SCT250=



000
FTUS44 KMAF 232103 AAB
TAFMAF
TAF AMD
KMAF 232103Z 2321/2418 20010G18KT P6SM SCT080 SCT200
     FM240000 17015G25KT P6SM SCT080
     FM240900 17014KT P6SM SCT050
      TEMPO 2410/2414 BKN020
     FM241600 23014G22KT P6SM SCT250=



000
FTUS44 KMAF 231410 AAA
TAFMAF
TAF AMD
KMAF 231410Z 2314/2412 18015G25KT P6SM SCT020
     FM231600 20010KT P6SM SCT200
     FM232100 18014G22KT P6SM SCT080=



000
FTUS44 KMAF 231120
TAFMAF
TAF
KMAF 231120Z 2312/2412 16015G25KT P6SM BKN020
     FM231600 20010KT P6SM SCT200
     FM232100 18014G22KT P6SM SCT080=



    US Dept of Commerce
    National Oceanic and Atmospheric Administration
    National Weather Service
    1325 East West Highway
    Silver Spring, MD 20910
    Page Author: NWS Internet Services Team
Disclaimer
Information Quality
Credits
Glossary
Privacy Policy
Freedom of Information Act (FOIA)
About Us
Career Opportunities